sensor_id;sensor_type;location;lat;lon;timestamp;temperature;humidity
18160;DHT22;9205;52.032;4.314;2023-04-01T00:01:50;9.50;99.90
18160;DHT22;9205;52.032;4.314;2023-04-01T00:04:17;9.40;99.90
18160;DHT22;9205;52.032;4.314;2023-04-01T00:06:44;9.30;99.90
18160;DHT22;9205;52.032;4.314;2023-04-01T00:09:12;9.40;99.90
18160;DHT22;9205;52.032;4.314;2023-04-01T00:11:41;9.90;99.90
18160;DHT22;9205;52.032;4.314;2023-04-01T00:14:10;9.30;99.90
18160;DHT22;9205;52.032;4.314;2023-04-01T00:16:38;9.60;99.90
18160;DHT22;9205;52.032;4.314;2023-04-01T00:19:05;9.60;99.90
18160;DHT22;9205;52.032;4.314;2023-04-01T00:21:33;9.40;99.90
18160;DHT22;9205;52.032;4.314;2023-04-01T00:24:00;9.60;99.90
18160;DHT22;9205;52.032;4.314;2023-04-01T00:26:27;9.80;99.90
18160;DHT22;9205;52.032;4.314;2023-04-01T00:28:56;9.50;99.90
18160;DHT22;9205;52.032;4.314;2023-04-01T00:31:24;9.30;99.90
18160;DHT22;9205;52.032;4.314;2023-04-01T00:33:52;9.10;99.90
18160;DHT22;9205;52.032;4.314;2023-04-01T00:36:20;9.70;99.90
18160;DHT22;9205;52.032;4.314;2023-04-01T00:38:49;9.80;99.90
18160;DHT22;9205;52.032;4.314;2023-04-01T00:41:18;9.90;99.90
18160;DHT22;9205;52.032;4.314;2023-04-01T00:43:49;9.40;99.90
18160;DHT22;9205;52.032;4.314;2023-04-01T00:46:19;9.80;99.90
18160;DHT22;9205;52.032;4.314;2023-04-01T00:48:49;9.80;99.90
18160;DHT22;9205;52.032;4.314;2023-04-01T00:51:21;9.30;99.90
18160;DHT22;9205;52.032;4.314;2023-04-01T00:53:53;9.80;99.90
18160;DHT22;9205;52.032;4.314;2023-04-01T00:56:24;9.20;99.90
18160;DHT22;9205;52.032;4.314;2023-04-01T00:59:00;9.70;99.90
18160;DHT22;9205;52.032;4.314;2023-04-01T01:01:31;9.40;99.90
18160;DHT22;9205;52.032;4.314;2023-04-01T01:04:00;9.80;99.90
18160;DHT22;9205;52.032;4.314;2023-04-01T01:06:37;9.80;99.90
18160;DHT22;9205;52.032;4.314;2023-04-01T01:09:25;9.70;99.90
18160;DHT22;9205;52.032;4.314;2023-04-01T01:12:05;9.40;99.90
18160;DHT22;9205;52.032;4.314;2023-04-01T01:14:48;9.10;99.90
18160;DHT22;9205;52.032;4.314;2023-04-01T01:17:30;9.50;99.90
18160;DHT22;9205;52.032;4.314;2023-04-01T01:23:42;9.80;99.90
18160;DHT22;9205;52.032;4.314;2023-04-01T01:26:40;9.20;99.90
18160;DHT22;9205;52.032;4.314;2023-04-01T01:29:40;9.80;99.90
18160;DHT22;9205;52.032;4.314;2023-04-01T01:32:24;9.00;99.90
18160;DHT22;9205;52.032;4.314;2023-04-01T01:35:19;9.70;99.90
18160;DHT22;9205;52.032;4.314;2023-04-01T01:37:54;9.20;99.90
18160;DHT22;9205;52.032;4.314;2023-04-01T01:40:26;9.40;99.90
18160;DHT22;9205;52.032;4.314;2023-04-01T01:42:57;9.70;99.90
18160;DHT22;9205;52.032;4.314;2023-04-01T01:45:29;9.80;99.90
18160;DHT22;9205;52.032;4.314;2023-04-01T01:48:00;9.70;99.90
18160;DHT22;9205;52.032;4.314;2023-04-01T01:50:31;9.40;99.90
18160;DHT22;9205;52.032;4.314;2023-04-01T01:53:02;9.70;99.90
18160;DHT22;9205;52.032;4.314;2023-04-01T01:55:32;9.10;99.90
18160;DHT22;9205;52.032;4.314;2023-04-01T01:58:05;9.60;99.90
18160;DHT22;9205;52.032;4.314;2023-04-01T02:00:39;9.70;99.90
18160;DHT22;9205;52.032;4.314;2023-04-01T02:03:09;9.60;99.90
18160;DHT22;9205;52.032;4.314;2023-04-01T02:05:40;9.00;99.90
18160;DHT22;9205;52.032;4.314;2023-04-01T02:08:12;9.10;99.90
18160;DHT22;9205;52.032;4.314;2023-04-01T02:10:47;9.00;99.90
18160;DHT22;9205;52.032;4.314;2023-04-01T02:13:27;9.00;99.90
18160;DHT22;9205;52.032;4.314;2023-04-01T02:16:01;9.50;99.90
18160;DHT22;9205;52.032;4.314;2023-04-01T02:18:34;9.30;99.90
18160;DHT22;9205;52.032;4.314;2023-04-01T02:21:05;9.30;99.90
18160;DHT22;9205;52.032;4.314;2023-04-01T02:23:35;9.80;99.90
18160;DHT22;9205;52.032;4.314;2023-04-01T02:26:05;9.90;99.90
18160;DHT22;9205;52.032;4.314;2023-04-01T02:28:37;9.70;99.90
18160;DHT22;9205;52.032;4.314;2023-04-01T02:31:06;9.20;99.90
18160;DHT22;9205;52.032;4.314;2023-04-01T02:33:38;9.10;99.90
18160;DHT22;9205;52.032;4.314;2023-04-01T02:36:11;9.10;99.90
18160;DHT22;9205;52.032;4.314;2023-04-01T02:38:41;9.70;99.90
18160;DHT22;9205;52.032;4.314;2023-04-01T02:41:09;9.10;99.90
18160;DHT22;9205;52.032;4.314;2023-04-01T02:43:37;9.10;99.90
18160;DHT22;9205;52.032;4.314;2023-04-01T02:46:04;9.20;99.90
18160;DHT22;9205;52.032;4.314;2023-04-01T02:48:31;9.40;99.90
18160;DHT22;9205;52.032;4.314;2023-04-01T02:50:58;9.90;99.90
18160;DHT22;9205;52.032;4.314;2023-04-01T02:53:27;9.40;99.90
18160;DHT22;9205;52.032;4.314;2023-04-01T02:55:55;9.50;99.90
18160;DHT22;9205;52.032;4.314;2023-04-01T02:58:22;9.30;99.90
18160;DHT22;9205;52.032;4.314;2023-04-01T03:00:49;10.00;99.90
18160;DHT22;9205;52.032;4.314;2023-04-01T03:03:16;9.80;99.90
18160;DHT22;9205;52.032;4.314;2023-04-01T03:05:43;10.10;99.90
18160;DHT22;9205;52.032;4.314;2023-04-01T03:08:10;9.70;99.90
18160;DHT22;9205;52.032;4.314;2023-04-01T03:10:39;9.90;99.90
18160;DHT22;9205;52.032;4.314;2023-04-01T03:13:07;9.40;99.90
18160;DHT22;9205;52.032;4.314;2023-04-01T03:15:34;9.30;99.90
18160;DHT22;9205;52.032;4.314;2023-04-01T03:18:02;9.30;99.90
18160;DHT22;9205;52.032;4.314;2023-04-01T03:20:29;9.20;99.90
18160;DHT22;9205;52.032;4.314;2023-04-01T03:22:57;9.60;99.90
18160;DHT22;9205;52.032;4.314;2023-04-01T03:25:26;10.10;99.90
18160;DHT22;9205;52.032;4.314;2023-04-01T03:27:55;10.00;99.90
18160;DHT22;9205;52.032;4.314;2023-04-01T03:30:26;9.80;99.90
18160;DHT22;9205;52.032;4.314;2023-04-01T03:32:53;10.00;99.90
18160;DHT22;9205;52.032;4.314;2023-04-01T03:35:21;10.10;99.90
18160;DHT22;9205;52.032;4.314;2023-04-01T03:37:49;9.40;99.90
18160;DHT22;9205;52.032;4.314;2023-04-01T03:40:17;10.00;99.90
18160;DHT22;9205;52.032;4.314;2023-04-01T03:42:45;9.30;99.90
18160;DHT22;9205;52.032;4.314;2023-04-01T03:45:13;9.40;99.90
18160;DHT22;9205;52.032;4.314;2023-04-01T03:47:41;9.80;99.90
18160;DHT22;9205;52.032;4.314;2023-04-01T03:50:09;9.60;99.90
18160;DHT22;9205;52.032;4.314;2023-04-01T03:52:37;9.30;99.90
18160;DHT22;9205;52.032;4.314;2023-04-01T03:55:04;9.30;99.90
18160;DHT22;9205;52.032;4.314;2023-04-01T03:57:32;9.30;99.90
18160;DHT22;9205;52.032;4.314;2023-04-01T04:00:08;9.30;99.90
18160;DHT22;9205;52.032;4.314;2023-04-01T04:02:40;9.40;99.90
18160;DHT22;9205;52.032;4.314;2023-04-01T04:05:09;9.90;99.90
18160;DHT22;9205;52.032;4.314;2023-04-01T04:07:37;9.30;99.90
18160;DHT22;9205;52.032;4.314;2023-04-01T04:10:07;10.20;99.90
18160;DHT22;9205;52.032;4.314;2023-04-01T04:12:36;9.60;99.90
18160;DHT22;9205;52.032;4.314;2023-04-01T04:15:04;9.40;99.90
18160;DHT22;9205;52.032;4.314;2023-04-01T04:17:32;9.70;99.90
18160;DHT22;9205;52.032;4.314;2023-04-01T04:20:01;10.20;99.90
18160;DHT22;9205;52.032;4.314;2023-04-01T04:22:29;10.20;99.90
18160;DHT22;9205;52.032;4.314;2023-04-01T04:24:56;9.30;99.90
18160;DHT22;9205;52.032;4.314;2023-04-01T04:27:24;9.50;99.90
18160;DHT22;9205;52.032;4.314;2023-04-01T04:30:04;9.60;99.90
18160;DHT22;9205;52.032;4.314;2023-04-01T04:32:34;9.70;99.90
18160;DHT22;9205;52.032;4.314;2023-04-01T04:35:04;10.20;99.90
18160;DHT22;9205;52.032;4.314;2023-04-01T04:37:33;9.40;99.90
18160;DHT22;9205;52.032;4.314;2023-04-01T04:40:00;9.30;99.90
18160;DHT22;9205;52.032;4.314;2023-04-01T04:42:28;10.00;99.90
18160;DHT22;9205;52.032;4.314;2023-04-01T04:45:01;10.00;99.90
18160;DHT22;9205;52.032;4.314;2023-04-01T04:47:29;9.60;99.90
18160;DHT22;9205;52.032;4.314;2023-04-01T04:49:56;9.20;99.90
18160;DHT22;9205;52.032;4.314;2023-04-01T04:52:25;9.40;99.90
18160;DHT22;9205;52.032;4.314;2023-04-01T04:54:52;9.20;99.90
18160;DHT22;9205;52.032;4.314;2023-04-01T04:57:19;9.90;99.90
18160;DHT22;9205;52.032;4.314;2023-04-01T04:59:53;9.30;99.90
18160;DHT22;9205;52.032;4.314;2023-04-01T05:02:35;9.30;99.90
18160;DHT22;9205;52.032;4.314;2023-04-01T05:05:03;9.30;99.90
18160;DHT22;9205;52.032;4.314;2023-04-01T05:07:32;9.90;99.90
18160;DHT22;9205;52.032;4.314;2023-04-01T05:10:00;9.90;99.90
18160;DHT22;9205;52.032;4.314;2023-04-01T05:12:28;9.90;99.90
18160;DHT22;9205;52.032;4.314;2023-04-01T05:14:58;9.20;99.90
18160;DHT22;9205;52.032;4.314;2023-04-01T05:17:26;9.10;99.90
18160;DHT22;9205;52.032;4.314;2023-04-01T05:19:53;9.70;99.90
18160;DHT22;9205;52.032;4.314;2023-04-01T05:22:20;9.40;99.90
18160;DHT22;9205;52.032;4.314;2023-04-01T05:24:49;9.20;99.90
18160;DHT22;9205;52.032;4.314;2023-04-01T05:27:17;9.20;99.90
18160;DHT22;9205;52.032;4.314;2023-04-01T05:29:44;10.00;99.90
18160;DHT22;9205;52.032;4.314;2023-04-01T05:32:36;10.00;99.90
18160;DHT22;9205;52.032;4.314;2023-04-01T05:35:04;9.80;99.90
18160;DHT22;9205;52.032;4.314;2023-04-01T05:37:33;9.70;99.90
18160;DHT22;9205;52.032;4.314;2023-04-01T05:40:04;9.50;99.90
18160;DHT22;9205;52.032;4.314;2023-04-01T05:42:33;9.20;99.90
18160;DHT22;9205;52.032;4.314;2023-04-01T05:45:01;9.50;99.90
18160;DHT22;9205;52.032;4.314;2023-04-01T05:48:04;9.60;99.90
18160;DHT22;9205;52.032;4.314;2023-04-01T05:50:39;9.60;99.90
18160;DHT22;9205;52.032;4.314;2023-04-01T05:53:07;9.10;99.90
18160;DHT22;9205;52.032;4.314;2023-04-01T05:55:37;9.60;99.90
18160;DHT22;9205;52.032;4.314;2023-04-01T05:58:05;9.50;99.90
18160;DHT22;9205;52.032;4.314;2023-04-01T06:00:33;9.20;99.90
18160;DHT22;9205;52.032;4.314;2023-04-01T06:03:00;9.20;99.90
18160;DHT22;9205;52.032;4.314;2023-04-01T06:05:29;9.10;99.90
18160;DHT22;9205;52.032;4.314;2023-04-01T06:08:05;9.30;99.90
18160;DHT22;9205;52.032;4.314;2023-04-01T06:10:48;9.70;99.90
18160;DHT22;9205;52.032;4.314;2023-04-01T06:13:34;9.60;99.90
18160;DHT22;9205;52.032;4.314;2023-04-01T06:16:19;9.60;99.90
18160;DHT22;9205;52.032;4.314;2023-04-01T06:19:13;9.60;99.90
18160;DHT22;9205;52.032;4.314;2023-04-01T06:22:15;9.80;99.90
18160;DHT22;9205;52.032;4.314;2023-04-01T06:25:44;9.70;99.90
18160;DHT22;9205;52.032;4.314;2023-04-01T06:28:52;9.20;99.90
18160;DHT22;9205;52.032;4.314;2023-04-01T06:31:57;9.30;99.90
18160;DHT22;9205;52.032;4.314;2023-04-01T06:35:03;9.80;99.90
18160;DHT22;9205;52.032;4.314;2023-04-01T06:38:12;9.60;99.90
18160;DHT22;9205;52.032;4.314;2023-04-01T06:44:16;9.10;99.90
18160;DHT22;9205;52.032;4.314;2023-04-01T06:47:12;9.70;99.90
18160;DHT22;9205;52.032;4.314;2023-04-01T06:50:30;9.20;99.90
18160;DHT22;9205;52.032;4.314;2023-04-01T06:53:30;9.30;99.90
18160;DHT22;9205;52.032;4.314;2023-04-01T06:56:41;9.90;99.90
18160;DHT22;9205;52.032;4.314;2023-04-01T06:59:24;9.70;99.90
18160;DHT22;9205;52.032;4.314;2023-04-01T07:01:55;9.70;99.90
18160;DHT22;9205;52.032;4.314;2023-04-01T07:04:30;9.90;99.90
18160;DHT22;9205;52.032;4.314;2023-04-01T07:07:03;9.80;99.90
18160;DHT22;9205;52.032;4.314;2023-04-01T07:09:41;9.60;99.90
18160;DHT22;9205;52.032;4.314;2023-04-01T07:12:37;9.80;99.90
18160;DHT22;9205;52.032;4.314;2023-04-01T07:15:33;9.80;99.90
18160;DHT22;9205;52.032;4.314;2023-04-01T07:18:10;9.90;99.90
18160;DHT22;9205;52.032;4.314;2023-04-01T07:20:43;9.20;99.90
18160;DHT22;9205;52.032;4.314;2023-04-01T07:23:20;9.90;99.90
18160;DHT22;9205;52.032;4.314;2023-04-01T07:26:01;9.90;99.90
18160;DHT22;9205;52.032;4.314;2023-04-01T07:28:56;9.90;99.90
18160;DHT22;9205;52.032;4.314;2023-04-01T07:35:07;9.20;99.90
18160;DHT22;9205;52.032;4.314;2023-04-01T07:37:53;10.00;99.90
18160;DHT22;9205;52.032;4.314;2023-04-01T07:40:37;9.40;99.90
18160;DHT22;9205;52.032;4.314;2023-04-01T07:43:36;9.70;99.90
18160;DHT22;9205;52.032;4.314;2023-04-01T07:46:42;10.00;99.90
18160;DHT22;9205;52.032;4.314;2023-04-01T07:49:25;9.40;99.90
18160;DHT22;9205;52.032;4.314;2023-04-01T07:52:04;9.30;99.90
18160;DHT22;9205;52.032;4.314;2023-04-01T07:54:46;9.30;99.90
18160;DHT22;9205;52.032;4.314;2023-04-01T07:57:19;9.90;99.90
18160;DHT22;9205;52.032;4.314;2023-04-01T07:59:59;10.00;99.90
18160;DHT22;9205;52.032;4.314;2023-04-01T08:02:57;9.50;99.90
18160;DHT22;9205;52.032;4.314;2023-04-01T08:05:45;9.40;99.90
18160;DHT22;9205;52.032;4.314;2023-04-01T08:08:29;10.00;99.90
18160;DHT22;9205;52.032;4.314;2023-04-01T08:11:39;9.60;99.90
18160;DHT22;9205;52.032;4.314;2023-04-01T08:14:48;9.80;99.90
18160;DHT22;9205;52.032;4.314;2023-04-01T08:17:58;10.10;99.90
18160;DHT22;9205;52.032;4.314;2023-04-01T08:20:36;10.00;99.90
18160;DHT22;9205;52.032;4.314;2023-04-01T08:23:13;9.40;99.90
18160;DHT22;9205;52.032;4.314;2023-04-01T08:25:48;9.50;99.90
18160;DHT22;9205;52.032;4.314;2023-04-01T08:28:27;9.50;99.90
18160;DHT22;9205;52.032;4.314;2023-04-01T08:31:05;9.90;99.90
18160;DHT22;9205;52.032;4.314;2023-04-01T08:33:40;9.60;99.90
18160;DHT22;9205;52.032;4.314;2023-04-01T08:36:15;9.50;99.90
18160;DHT22;9205;52.032;4.314;2023-04-01T08:38:54;10.10;99.90
18160;DHT22;9205;52.032;4.314;2023-04-01T08:41:39;9.50;99.90
18160;DHT22;9205;52.032;4.314;2023-04-01T08:45:10;10.00;99.90
18160;DHT22;9205;52.032;4.314;2023-04-01T08:51:42;9.50;99.90
18160;DHT22;9205;52.032;4.314;2023-04-01T08:54:37;10.00;99.90
18160;DHT22;9205;52.032;4.314;2023-04-01T08:57:49;10.10;99.90
18160;DHT22;9205;52.032;4.314;2023-04-01T09:00:46;9.80;99.90
18160;DHT22;9205;52.032;4.314;2023-04-01T09:06:52;10.10;99.90
18160;DHT22;9205;52.032;4.314;2023-04-01T09:09:58;9.90;99.90
18160;DHT22;9205;52.032;4.314;2023-04-01T09:13:13;9.50;99.90
18160;DHT22;9205;52.032;4.314;2023-04-01T09:16:03;10.10;99.90
18160;DHT22;9205;52.032;4.314;2023-04-01T09:19:18;9.80;99.90
18160;DHT22;9205;52.032;4.314;2023-04-01T09:22:00;9.50;99.90
18160;DHT22;9205;52.032;4.314;2023-04-01T09:25:02;9.60;99.90
18160;DHT22;9205;52.032;4.314;2023-04-01T09:27:44;10.30;99.90
18160;DHT22;9205;52.032;4.314;2023-04-01T09:30:48;10.30;99.90
18160;DHT22;9205;52.032;4.314;2023-04-01T09:34:21;9.70;99.90
18160;DHT22;9205;52.032;4.314;2023-04-01T09:37:17;9.50;99.90
18160;DHT22;9205;52.032;4.314;2023-04-01T09:40:12;9.60;99.90
18160;DHT22;9205;52.032;4.314;2023-04-01T09:42:55;10.10;99.90
18160;DHT22;9205;52.032;4.314;2023-04-01T09:45:48;9.40;99.90
18160;DHT22;9205;52.032;4.314;2023-04-01T09:48:46;10.10;99.90
18160;DHT22;9205;52.032;4.314;2023-04-01T09:51:39;9.50;99.90
18160;DHT22;9205;52.032;4.314;2023-04-01T09:54:32;10.20;99.90
18160;DHT22;9205;52.032;4.314;2023-04-01T10:04:31;9.80;99.90
18160;DHT22;9205;52.032;4.314;2023-04-01T10:14:16;10.10;99.90
18160;DHT22;9205;52.032;4.314;2023-04-01T10:20:21;10.20;99.90
18160;DHT22;9205;52.032;4.314;2023-04-01T10:23:22;10.20;99.90
18160;DHT22;9205;52.032;4.314;2023-04-01T10:26:50;9.90;99.90
18160;DHT22;9205;52.032;4.314;2023-04-01T10:33:25;9.50;99.90
18160;DHT22;9205;52.032;4.314;2023-04-01T10:36:40;10.10;99.90
18160;DHT22;9205;52.032;4.314;2023-04-01T10:43:49;10.00;99.90
18160;DHT22;9205;52.032;4.314;2023-04-01T10:47:00;9.70;99.90
18160;DHT22;9205;52.032;4.314;2023-04-01T10:50:29;10.50;99.90
18160;DHT22;9205;52.032;4.314;2023-04-01T10:53:45;10.10;99.90
18160;DHT22;9205;52.032;4.314;2023-04-01T10:56:54;9.80;99.90
18160;DHT22;9205;52.032;4.314;2023-04-01T11:00:12;10.60;99.90
18160;DHT22;9205;52.032;4.314;2023-04-01T11:03:51;9.80;99.90
18160;DHT22;9205;52.032;4.314;2023-04-01T11:11:37;10.10;99.90
18160;DHT22;9205;52.032;4.314;2023-04-01T11:21:59;10.00;99.90
18160;DHT22;9205;52.032;4.314;2023-04-01T11:29:30;9.90;99.90
18160;DHT22;9205;52.032;4.314;2023-04-01T11:32:28;10.40;99.90
18160;DHT22;9205;52.032;4.314;2023-04-01T11:35:37;10.40;99.90
18160;DHT22;9205;52.032;4.314;2023-04-01T11:41:48;10.70;99.90
18160;DHT22;9205;52.032;4.314;2023-04-01T11:44:42;10.40;99.90
18160;DHT22;9205;52.032;4.314;2023-04-01T11:47:39;10.00;99.90
18160;DHT22;9205;52.032;4.314;2023-04-01T11:50:29;10.20;99.90
18160;DHT22;9205;52.032;4.314;2023-04-01T11:53:36;10.00;99.90
18160;DHT22;9205;52.032;4.314;2023-04-01T11:56:26;10.10;99.90
18160;DHT22;9205;52.032;4.314;2023-04-01T11:59:20;10.20;99.90
18160;DHT22;9205;52.032;4.314;2023-04-01T12:02:08;10.00;99.90
18160;DHT22;9205;52.032;4.314;2023-04-01T12:08:04;10.30;99.90
18160;DHT22;9205;52.032;4.314;2023-04-01T12:10:47;10.60;99.90
18160;DHT22;9205;52.032;4.314;2023-04-01T12:13:30;10.20;99.90
18160;DHT22;9205;52.032;4.314;2023-04-01T12:16:28;10.80;99.90
18160;DHT22;9205;52.032;4.314;2023-04-01T12:19:15;10.00;99.90
18160;DHT22;9205;52.032;4.314;2023-04-01T12:22:04;10.50;99.90
18160;DHT22;9205;52.032;4.314;2023-04-01T12:24:49;10.10;99.90
18160;DHT22;9205;52.032;4.314;2023-04-01T12:27:29;10.00;99.90
18160;DHT22;9205;52.032;4.314;2023-04-01T12:33:15;10.70;99.90
18160;DHT22;9205;52.032;4.314;2023-04-01T12:35:58;10.30;99.90
18160;DHT22;9205;52.032;4.314;2023-04-01T12:38:46;10.10;99.90
18160;DHT22;9205;52.032;4.314;2023-04-01T12:41:32;10.60;99.90
18160;DHT22;9205;52.032;4.314;2023-04-01T12:44:16;10.80;99.90
18160;DHT22;9205;52.032;4.314;2023-04-01T12:47:25;10.20;99.90
18160;DHT22;9205;52.032;4.314;2023-04-01T12:50:35;9.90;99.90
18160;DHT22;9205;52.032;4.314;2023-04-01T12:53:29;10.60;99.90
18160;DHT22;9205;52.032;4.314;2023-04-01T12:56:14;10.40;99.90
18160;DHT22;9205;52.032;4.314;2023-04-01T12:59:15;10.60;99.90
18160;DHT22;9205;52.032;4.314;2023-04-01T13:02:03;11.00;99.90
18160;DHT22;9205;52.032;4.314;2023-04-01T13:05:15;10.90;99.90
18160;DHT22;9205;52.032;4.314;2023-04-01T13:08:24;10.30;99.90
18160;DHT22;9205;52.032;4.314;2023-04-01T13:11:09;10.90;99.90
18160;DHT22;9205;52.032;4.314;2023-04-01T13:17:31;10.60;99.90
18160;DHT22;9205;52.032;4.314;2023-04-01T13:20:11;11.00;99.90
18160;DHT22;9205;52.032;4.314;2023-04-01T13:22:52;11.00;99.90
18160;DHT22;9205;52.032;4.314;2023-04-01T13:25:36;11.20;99.90
18160;DHT22;9205;52.032;4.314;2023-04-01T13:28:14;10.60;99.90
18160;DHT22;9205;52.032;4.314;2023-04-01T13:30:49;10.90;99.90
18160;DHT22;9205;52.032;4.314;2023-04-01T13:33:30;10.50;99.90
18160;DHT22;9205;52.032;4.314;2023-04-01T13:36:16;10.90;99.90
18160;DHT22;9205;52.032;4.314;2023-04-01T13:39:09;11.00;99.90
18160;DHT22;9205;52.032;4.314;2023-04-01T13:42:01;10.90;99.90
18160;DHT22;9205;52.032;4.314;2023-04-01T13:44:43;10.80;99.90
18160;DHT22;9205;52.032;4.314;2023-04-01T13:54:12;10.50;99.90
18160;DHT22;9205;52.032;4.314;2023-04-01T13:57:02;11.00;99.90
18160;DHT22;9205;52.032;4.314;2023-04-01T14:00:00;11.10;99.90
18160;DHT22;9205;52.032;4.314;2023-04-01T14:06:17;10.80;99.90
18160;DHT22;9205;52.032;4.314;2023-04-01T14:09:17;10.30;99.90
18160;DHT22;9205;52.032;4.314;2023-04-01T14:12:05;10.50;99.90
18160;DHT22;9205;52.032;4.314;2023-04-01T14:14:50;10.30;99.90
18160;DHT22;9205;52.032;4.314;2023-04-01T14:17:42;11.10;99.90
18160;DHT22;9205;52.032;4.314;2023-04-01T14:20:29;10.80;99.90
18160;DHT22;9205;52.032;4.314;2023-04-01T14:23:28;10.50;99.90
18160;DHT22;9205;52.032;4.314;2023-04-01T14:26:35;10.80;99.90
18160;DHT22;9205;52.032;4.314;2023-04-01T14:29:30;10.80;99.90
18160;DHT22;9205;52.032;4.314;2023-04-01T14:32:12;10.10;99.90
18160;DHT22;9205;52.032;4.314;2023-04-01T14:35:06;10.60;99.90
18160;DHT22;9205;52.032;4.314;2023-04-01T14:38:11;10.40;99.90
18160;DHT22;9205;52.032;4.314;2023-04-01T14:41:02;11.10;99.90
18160;DHT22;9205;52.032;4.314;2023-04-01T14:43:53;10.80;99.90
18160;DHT22;9205;52.032;4.314;2023-04-01T14:49:52;10.70;99.90
18160;DHT22;9205;52.032;4.314;2023-04-01T14:52:31;11.30;99.90
18160;DHT22;9205;52.032;4.314;2023-04-01T14:55:01;11.10;99.90
18160;DHT22;9205;52.032;4.314;2023-04-01T14:57:58;10.70;99.90
18160;DHT22;9205;52.032;4.314;2023-04-01T15:00:47;11.00;99.90
18160;DHT22;9205;52.032;4.314;2023-04-01T15:03:24;10.80;99.90
18160;DHT22;9205;52.032;4.314;2023-04-01T15:06:10;11.10;99.90
18160;DHT22;9205;52.032;4.314;2023-04-01T15:09:00;10.80;99.90
18160;DHT22;9205;52.032;4.314;2023-04-01T15:11:47;11.40;99.90
18160;DHT22;9205;52.032;4.314;2023-04-01T15:14:40;10.80;99.90
18160;DHT22;9205;52.032;4.314;2023-04-01T15:17:36;11.20;99.90
18160;DHT22;9205;52.032;4.314;2023-04-01T15:20:35;11.10;99.90
18160;DHT22;9205;52.032;4.314;2023-04-01T15:23:26;11.20;99.90
18160;DHT22;9205;52.032;4.314;2023-04-01T15:26:29;11.00;99.90
18160;DHT22;9205;52.032;4.314;2023-04-01T15:29:37;11.00;99.90
18160;DHT22;9205;52.032;4.314;2023-04-01T15:32:17;10.40;99.90
18160;DHT22;9205;52.032;4.314;2023-04-01T15:34:58;11.00;99.90
18160;DHT22;9205;52.032;4.314;2023-04-01T15:37:37;10.90;99.90
18160;DHT22;9205;52.032;4.314;2023-04-01T15:40:22;10.40;99.90
18160;DHT22;9205;52.032;4.314;2023-04-01T15:43:02;10.80;99.90
18160;DHT22;9205;52.032;4.314;2023-04-01T15:45:46;10.70;99.90
18160;DHT22;9205;52.032;4.314;2023-04-01T15:48:32;10.40;99.90
18160;DHT22;9205;52.032;4.314;2023-04-01T15:51:14;10.60;99.90
18160;DHT22;9205;52.032;4.314;2023-04-01T15:54:06;10.40;99.90
18160;DHT22;9205;52.032;4.314;2023-04-01T15:57:08;10.60;99.90
18160;DHT22;9205;52.032;4.314;2023-04-01T16:00:09;10.60;99.90
18160;DHT22;9205;52.032;4.314;2023-04-01T16:02:48;10.90;99.90
18160;DHT22;9205;52.032;4.314;2023-04-01T16:05:34;10.90;99.90
18160;DHT22;9205;52.032;4.314;2023-04-01T16:11:19;10.40;99.90
18160;DHT22;9205;52.032;4.314;2023-04-01T16:13:59;10.70;99.90
18160;DHT22;9205;52.032;4.314;2023-04-01T16:16:45;10.50;99.90
18160;DHT22;9205;52.032;4.314;2023-04-01T16:19:37;10.80;99.90
18160;DHT22;9205;52.032;4.314;2023-04-01T16:22:21;10.40;99.90
18160;DHT22;9205;52.032;4.314;2023-04-01T16:24:59;10.70;99.90
18160;DHT22;9205;52.032;4.314;2023-04-01T16:27:47;10.70;99.90
18160;DHT22;9205;52.032;4.314;2023-04-01T16:30:34;10.90;99.90
18160;DHT22;9205;52.032;4.314;2023-04-01T16:33:10;10.40;99.90
18160;DHT22;9205;52.032;4.314;2023-04-01T16:35:43;10.80;99.90
18160;DHT22;9205;52.032;4.314;2023-04-01T16:38:20;10.50;99.90
18160;DHT22;9205;52.032;4.314;2023-04-01T16:41:00;10.80;99.90
18160;DHT22;9205;52.032;4.314;2023-04-01T16:43:42;10.80;99.90
18160;DHT22;9205;52.032;4.314;2023-04-01T16:46:26;10.40;99.90
18160;DHT22;9205;52.032;4.314;2023-04-01T16:49:04;10.50;99.90
18160;DHT22;9205;52.032;4.314;2023-04-01T16:51:46;10.50;99.90
18160;DHT22;9205;52.032;4.314;2023-04-01T16:54:28;10.60;99.90
18160;DHT22;9205;52.032;4.314;2023-04-01T16:57:10;10.90;99.90
18160;DHT22;9205;52.032;4.314;2023-04-01T16:59:47;10.40;99.90
18160;DHT22;9205;52.032;4.314;2023-04-01T17:02:27;10.80;99.90
18160;DHT22;9205;52.032;4.314;2023-04-01T17:05:01;10.40;99.90
18160;DHT22;9205;52.032;4.314;2023-04-01T17:07:41;10.40;99.90
18160;DHT22;9205;52.032;4.314;2023-04-01T17:10:41;10.70;99.90
18160;DHT22;9205;52.032;4.314;2023-04-01T17:13:37;10.60;99.90
18160;DHT22;9205;52.032;4.314;2023-04-01T17:16:44;10.80;99.90
18160;DHT22;9205;52.032;4.314;2023-04-01T17:19:41;10.80;99.90
18160;DHT22;9205;52.032;4.314;2023-04-01T17:22:25;10.80;99.90
18160;DHT22;9205;52.032;4.314;2023-04-01T17:25:28;10.70;99.90
18160;DHT22;9205;52.032;4.314;2023-04-01T17:28:13;10.50;99.90
18160;DHT22;9205;52.032;4.314;2023-04-01T17:30:57;10.70;99.90
18160;DHT22;9205;52.032;4.314;2023-04-01T17:33:47;10.70;99.90
18160;DHT22;9205;52.032;4.314;2023-04-01T17:36:36;10.80;99.90
18160;DHT22;9205;52.032;4.314;2023-04-01T17:39:29;10.40;99.90
18160;DHT22;9205;52.032;4.314;2023-04-01T17:42:08;10.70;99.90
18160;DHT22;9205;52.032;4.314;2023-04-01T17:44:54;10.50;99.90
18160;DHT22;9205;52.032;4.314;2023-04-01T17:47:36;10.40;99.90
18160;DHT22;9205;52.032;4.314;2023-04-01T17:50:21;10.50;99.90
18160;DHT22;9205;52.032;4.314;2023-04-01T17:53:02;10.40;99.90
18160;DHT22;9205;52.032;4.314;2023-04-01T17:56:07;10.30;99.90
18160;DHT22;9205;52.032;4.314;2023-04-01T17:58:45;10.20;99.90
18160;DHT22;9205;52.032;4.314;2023-04-01T18:01:46;10.70;99.90
18160;DHT22;9205;52.032;4.314;2023-04-01T18:04:48;10.20;99.90
18160;DHT22;9205;52.032;4.314;2023-04-01T18:07:48;10.30;99.90
18160;DHT22;9205;52.032;4.314;2023-04-01T18:10:32;10.10;99.90
18160;DHT22;9205;52.032;4.314;2023-04-01T18:13:27;10.40;99.90
18160;DHT22;9205;52.032;4.314;2023-04-01T18:16:17;10.20;99.90
18160;DHT22;9205;52.032;4.314;2023-04-01T18:19:01;10.20;99.90
18160;DHT22;9205;52.032;4.314;2023-04-01T18:21:43;10.10;99.90
18160;DHT22;9205;52.032;4.314;2023-04-01T18:24:21;10.40;99.90
18160;DHT22;9205;52.032;4.314;2023-04-01T18:27:03;10.40;99.90
18160;DHT22;9205;52.032;4.314;2023-04-01T18:29:37;10.10;99.90
18160;DHT22;9205;52.032;4.314;2023-04-01T18:35:17;10.10;99.90
18160;DHT22;9205;52.032;4.314;2023-04-01T18:37:54;10.30;99.90
18160;DHT22;9205;52.032;4.314;2023-04-01T18:40:30;10.30;99.90
18160;DHT22;9205;52.032;4.314;2023-04-01T18:43:09;10.10;99.90
18160;DHT22;9205;52.032;4.314;2023-04-01T18:45:45;10.30;99.90
18160;DHT22;9205;52.032;4.314;2023-04-01T18:48:37;10.00;99.90
18160;DHT22;9205;52.032;4.314;2023-04-01T18:51:14;10.30;99.90
18160;DHT22;9205;52.032;4.314;2023-04-01T18:53:52;10.20;99.90
18160;DHT22;9205;52.032;4.314;2023-04-01T18:56:29;10.20;99.90
18160;DHT22;9205;52.032;4.314;2023-04-01T18:59:05;10.20;99.90
18160;DHT22;9205;52.032;4.314;2023-04-01T19:01:42;10.00;99.90
18160;DHT22;9205;52.032;4.314;2023-04-01T19:04:23;9.80;99.90
18160;DHT22;9205;52.032;4.314;2023-04-01T19:06:57;9.80;99.90
18160;DHT22;9205;52.032;4.314;2023-04-01T19:09:27;9.90;99.90